Time;durP1;ratioP1;P1;durP2;ratioP2;P2;SDS_P1;SDS_P2;PMS_P1;PMS_P2;Temp;Humidity;BMP_temperature;BMP_pressure;BME280_temperature;BME280_humidity;BME280_pressure;Samples;Min_cycle;Max_cycle;Signal;HPM_P1;HPM_P2
2021/07/24 00:02:13;;;;;;;21.17;12.13;;;;;;;16.20;82.74;95182.00;5039932;28;20080;-79
2021/07/24 00:04:39;;;;;;;19.42;11.90;;;;;;;16.01;83.36;95179.66;5041363;28;20095;-78
2021/07/24 00:07:05;;;;;;;22.35;13.52;;;;;;;15.92;82.80;95180.44;5031300;28;20434;-79
2021/07/24 00:09:30;;;;;;;19.63;12.43;;;;;;;15.81;83.92;95181.81;5054900;28;20053;-79
2021/07/24 00:11:57;;;;;;;21.20;12.82;;;;;;;15.70;83.99;95178.69;5040673;28;20041;-80
2021/07/24 00:14:22;;;;;;;20.58;12.70;;;;;;;15.72;84.23;95176.47;5040338;28;20056;-79
2021/07/24 00:16:48;;;;;;;19.73;11.90;;;;;;;15.89;83.50;95185.59;5047981;28;20033;-79
2021/07/24 00:19:13;;;;;;;22.00;13.02;;;;;;;16.00;83.18;95178.09;5035939;28;20057;-79
2021/07/24 00:21:38;;;;;;;20.88;11.80;;;;;;;15.98;83.10;95172.34;5041794;28;20090;-79
2021/07/24 00:24:04;;;;;;;20.30;12.45;;;;;;;15.98;83.39;95170.44;5040985;28;20047;-77
2021/07/24 00:26:30;;;;;;;19.88;12.23;;;;;;;15.82;83.84;95161.41;5037093;28;20040;-79
2021/07/24 00:28:55;;;;;;;19.98;12.15;;;;;;;15.75;83.67;95161.81;5036672;28;20038;-79
2021/07/24 00:31:21;;;;;;;22.83;12.80;;;;;;;15.63;84.28;95164.28;5035051;28;20047;-80
2021/07/24 00:33:46;;;;;;;22.85;12.93;;;;;;;15.60;85.08;95160.38;5047113;28;20041;-78
2021/07/24 00:36:11;;;;;;;21.33;13.02;;;;;;;15.66;85.13;95159.16;5037381;28;20047;-78
2021/07/24 00:38:39;;;;;;;23.60;13.30;;;;;;;15.60;84.67;95155.06;5041494;28;20037;-79
2021/07/24 00:41:14;;;;;;;20.80;12.63;;;;;;;15.40;84.69;95149.28;5050548;28;20080;-80
2021/07/24 00:43:40;;;;;;;20.73;12.90;;;;;;;15.39;84.94;95139.75;5043866;28;20379;-79
2021/07/24 00:46:07;;;;;;;20.52;13.38;;;;;;;15.44;84.87;95140.72;5045511;28;20041;-80
2021/07/24 00:48:36;;;;;;;20.40;13.00;;;;;;;15.38;84.89;95138.19;5041554;28;20037;-79
2021/07/24 00:51:02;;;;;;;20.48;12.98;;;;;;;15.31;84.95;95129.91;5043997;28;20045;-80
2021/07/24 00:53:36;;;;;;;23.77;13.82;;;;;;;15.18;86.47;95125.50;5039719;28;20532;-79
2021/07/24 00:56:04;;;;;;;23.63;14.38;;;;;;;15.30;86.04;95124.91;5046732;28;20082;-78
2021/07/24 00:58:32;;;;;;;20.05;12.90;;;;;;;15.33;85.45;95130.41;5040883;28;20048;-79
2021/07/24 01:01:00;;;;;;;22.58;13.30;;;;;;;15.42;85.20;95127.75;5036511;28;20040;-79
2021/07/24 01:03:26;;;;;;;20.80;12.90;;;;;;;15.37;85.65;95126.03;5041088;28;20415;-80
2021/07/24 01:05:56;;;;;;;21.73;13.55;;;;;;;15.29;85.46;95124.16;5037163;28;20037;-81
2021/07/24 01:08:24;;;;;;;22.20;12.00;;;;;;;15.33;85.93;95125.09;5039075;28;20056;-80
2021/07/24 01:10:50;;;;;;;19.30;12.60;;;;;;;15.19;85.70;95119.13;5032542;28;20057;-80
2021/07/24 01:13:17;;;;;;;22.20;12.48;;;;;;;15.13;86.40;95115.03;5040738;28;20106;-79
2021/07/24 01:15:46;;;;;;;21.63;12.68;;;;;;;15.11;86.39;95114.59;5040515;28;20120;-79
2021/07/24 01:18:12;;;;;;;24.63;12.90;;;;;;;15.04;86.14;95107.88;5042702;28;20055;-79
2021/07/24 01:20:40;;;;;;;22.67;13.32;;;;;;;15.09;86.62;95111.47;5034569;28;20049;-79
2021/07/24 01:23:06;;;;;;;20.60;13.13;;;;;;;15.10;86.51;95110.38;5038834;28;20033;-78
2021/07/24 01:25:32;;;;;;;23.48;13.38;;;;;;;15.09;86.04;95114.13;5045112;28;20052;-79
2021/07/24 01:27:58;;;;;;;21.00;12.23;;;;;;;15.09;85.95;95111.47;5039418;28;20507;-80
2021/07/24 01:30:23;;;;;;;21.63;13.15;;;;;;;14.98;86.15;95103.78;5046023;28;20037;-78
2021/07/24 01:32:49;;;;;;;21.35;13.10;;;;;;;14.99;86.34;95099.28;5038468;28;20041;-78
2021/07/24 01:35:14;;;;;;;22.30;12.95;;;;;;;14.93;85.77;95098.63;5041532;28;20045;-79
2021/07/24 01:37:40;;;;;;;26.15;12.90;;;;;;;15.07;85.88;95101.19;5042124;28;20048;-79
2021/07/24 01:40:06;;;;;;;20.63;12.25;;;;;;;15.06;85.94;95100.38;5031763;28;20041;-79
2021/07/24 01:42:32;;;;;;;24.63;12.68;;;;;;;15.04;85.59;95099.91;5039246;28;20046;-81
2021/07/24 01:44:57;;;;;;;21.02;13.30;;;;;;;15.01;85.27;95097.88;5047747;28;20052;-79
2021/07/24 01:47:22;;;;;;;23.20;13.23;;;;;;;14.92;85.71;95099.72;5042784;28;20422;-79
2021/07/24 01:52:48;;;;;;;20.58;12.35;;;;;;;14.99;86.07;95100.03;5031229;28;20045;-79
2021/07/24 01:55:29;;;;;;;21.77;13.15;;;;;;;15.03;85.86;95105.53;5039928;28;20451;-79
2021/07/24 01:57:56;;;;;;;28.98;12.98;;;;;;;15.00;85.95;95101.63;5032228;28;20045;-78
2021/07/24 02:00:21;;;;;;;22.45;12.85;;;;;;;14.80;86.17;95107.47;5045252;28;20041;-79
2021/07/24 02:02:51;;;;;;;19.70;12.98;;;;;;;14.65;86.36;95104.16;5049101;28;20511;-80
2021/07/24 02:05:44;;;;;;;21.20;12.20;;;;;;;14.66;86.93;95097.75;5049584;28;21180;-79
2021/07/24 02:08:11;;;;;;;23.15;13.15;;;;;;;14.68;87.04;95100.88;5046099;28;20041;-79
2021/07/24 02:10:39;;;;;;;21.05;13.02;;;;;;;14.70;86.60;95090.75;5033529;28;20163;-78
2021/07/24 02:13:05;;;;;;;24.52;14.02;;;;;;;14.78;86.12;95104.34;5041201;28;20045;-80
2021/07/24 02:15:31;;;;;;;21.67;13.55;;;;;;;14.76;86.07;95094.06;5038680;28;20109;-80
2021/07/24 02:17:58;;;;;;;23.65;13.77;;;;;;;14.68;85.81;95089.50;5039770;28;20094;-79
2021/07/24 02:20:24;;;;;;;21.10;13.68;;;;;;;14.62;86.12;95091.50;5030635;28;20112;-79
2021/07/24 02:22:50;;;;;;;23.70;13.18;;;;;;;14.65;86.10;95082.97;5043544;28;20049;-79
2021/07/24 02:25:15;;;;;;;22.27;13.40;;;;;;;14.60;86.03;95088.34;5043200;28;20066;-80
2021/07/24 02:27:45;;;;;;;20.92;12.95;;;;;;;14.63;85.86;95081.69;5048231;28;20051;-81
2021/07/24 02:30:11;;;;;;;25.08;13.32;;;;;;;14.61;86.18;95089.91;5043446;28;20048;-79
2021/07/24 02:32:36;;;;;;;22.20;12.82;;;;;;;14.46;86.99;95093.72;5044374;28;20044;-79
2021/07/24 02:35:02;;;;;;;22.52;13.25;;;;;;;14.49;86.98;95092.34;5045401;28;20045;-79
2021/07/24 02:37:28;;;;;;;22.58;13.15;;;;;;;14.41;87.30;95101.00;5043654;28;20042;-81
2021/07/24 02:39:53;;;;;;;24.90;13.98;;;;;;;14.30;87.84;95101.28;5040676;28;20245;-80
2021/07/24 02:42:19;;;;;;;23.33;13.77;;;;;;;14.43;87.69;95104.16;5040308;28;20033;-80
2021/07/24 02:44:44;;;;;;;23.10;13.93;;;;;;;14.72;85.98;95104.50;5045532;28;20120;-79
2021/07/24 02:47:10;;;;;;;22.55;13.15;;;;;;;14.60;86.21;95112.19;5039551;28;20402;-80
2021/07/24 02:49:35;;;;;;;26.15;14.65;;;;;;;14.52;86.78;95110.25;5040131;28;20753;-79
2021/07/24 02:52:01;;;;;;;21.77;13.82;;;;;;;14.40;87.53;95104.75;5042218;28;20045;-79
2021/07/24 02:54:26;;;;;;;22.73;12.98;;;;;;;14.30;87.38;95114.50;5038140;28;20456;-79
2021/07/24 02:56:52;;;;;;;21.48;13.85;;;;;;;14.40;88.05;95120.66;5042228;28;20483;-79
2021/07/24 02:59:17;;;;;;;22.40;13.88;;;;;;;14.64;86.93;95126.41;5042929;28;20037;-79
2021/07/24 03:01:44;;;;;;;23.50;13.95;;;;;;;14.59;86.68;95131.78;5048494;28;20513;-79
2021/07/24 03:04:10;;;;;;;23.85;14.60;;;;;;;14.53;87.18;95119.78;5049611;28;20037;-80
2021/07/24 03:06:35;;;;;;;25.45;14.15;;;;;;;14.52;87.40;95123.50;5041648;28;20044;-79
2021/07/24 03:09:03;;;;;;;24.63;14.50;;;;;;;14.62;87.11;95117.19;5043378;28;20048;-79
2021/07/24 03:11:29;;;;;;;24.63;14.35;;;;;;;14.54;86.84;95121.34;5049555;28;20469;-80
2021/07/24 03:13:55;;;;;;;26.77;14.23;;;;;;;14.54;86.51;95116.06;5049956;28;20045;-78
2021/07/24 03:16:21;;;;;;;26.30;14.13;;;;;;;14.50;86.99;95115.09;5040207;28;20037;-80
2021/07/24 03:18:46;;;;;;;25.35;14.65;;;;;;;14.54;86.94;95126.66;5043792;28;20616;-80
2021/07/24 03:21:12;;;;;;;25.55;14.25;;;;;;;14.47;87.34;95121.00;5041138;28;20392;-78
2021/07/24 03:23:37;;;;;;;25.73;13.35;;;;;;;14.31;87.18;95129.31;5052204;28;20048;-78
2021/07/24 03:26:09;;;;;;;24.55;13.50;;;;;;;14.27;87.93;95127.56;5044870;28;20037;-79
2021/07/24 03:28:35;;;;;;;22.50;13.73;;;;;;;14.23;88.15;95127.38;5036967;28;20072;-80
2021/07/24 03:31:00;;;;;;;26.95;14.30;;;;;;;14.34;87.88;95133.22;5040461;28;20487;-78
2021/07/24 03:33:26;;;;;;;23.27;13.95;;;;;;;14.33;87.37;95127.13;5041703;28;20091;-79
2021/07/24 03:35:51;;;;;;;21.65;13.05;;;;;;;14.40;87.38;95128.59;5043555;28;20045;-79
2021/07/24 03:38:17;;;;;;;23.08;14.20;;;;;;;14.34;87.72;95123.41;5038717;28;20048;-78
2021/07/24 03:40:43;;;;;;;22.38;13.85;;;;;;;14.29;88.09;95118.22;5041036;28;20063;-78
2021/07/24 03:43:09;;;;;;;25.73;13.70;;;;;;;13.93;89.61;95103.19;5034518;28;20033;-80
2021/07/24 03:45:35;;;;;;;28.10;14.55;;;;;;;14.02;89.82;95106.72;5041031;28;20521;-80
2021/07/24 03:48:02;;;;;;;23.85;14.13;;;;;;;14.25;89.22;95109.34;5042476;28;20116;-80
2021/07/24 03:50:27;;;;;;;29.33;14.95;;;;;;;14.34;88.79;95112.06;5042302;28;20041;-79
2021/07/24 03:52:53;;;;;;;24.60;13.70;;;;;;;14.40;88.19;95104.75;5040083;28;20598;-81
2021/07/24 03:55:18;;;;;;;24.80;14.48;;;;;;;14.50;87.90;95101.84;5050166;28;20037;-80
2021/07/24 03:57:45;;;;;;;24.65;14.50;;;;;;;14.41;87.77;95101.00;5044318;28;20089;-79
2021/07/24 04:00:11;;;;;;;28.27;14.63;;;;;;;14.37;88.36;95096.34;5033843;28;20046;-78
2021/07/24 04:02:39;;;;;;;22.85;14.05;;;;;;;14.54;87.75;95094.88;5042112;28;20399;-78
2021/07/24 04:05:05;;;;;;;24.08;13.48;;;;;;;14.47;88.27;95094.53;5041587;28;20045;-81
2021/07/24 04:07:31;;;;;;;24.58;14.25;;;;;;;14.48;88.12;95085.47;5041397;28;20038;-79
2021/07/24 04:09:57;;;;;;;25.40;14.13;;;;;;;14.34;89.11;95081.06;5056847;28;20497;-79
2021/07/24 04:12:22;;;;;;;22.92;13.65;;;;;;;14.46;88.82;95083.13;5045218;28;20052;-79
2021/07/24 04:14:48;;;;;;;23.50;13.77;;;;;;;14.46;88.87;95098.25;5040942;28;20095;-79
2021/07/24 04:17:14;;;;;;;22.90;14.30;;;;;;;14.44;89.20;95095.09;5042048;28;20065;-80
2021/07/24 04:19:40;;;;;;;26.08;14.32;;;;;;;14.56;88.92;95097.97;5042598;28;20341;-79
2021/07/24 04:22:05;;;;;;;25.52;14.88;;;;;;;14.65;88.33;95096.19;5041994;28;20052;-79
2021/07/24 04:24:30;;;;;;;23.13;14.05;;;;;;;14.53;88.77;95104.66;5041506;28;20048;-79
2021/07/24 04:26:56;;;;;;;24.13;14.13;;;;;;;14.58;88.70;95098.44;5040141;28;20061;-79
2021/07/24 04:29:22;;;;;;;26.10;14.80;;;;;;;14.69;88.61;95101.66;5059500;28;20474;-78
2021/07/24 04:31:47;;;;;;;28.63;14.80;;;;;;;14.83;88.47;95096.25;5054260;28;20055;-78
2021/07/24 04:34:13;;;;;;;24.90;14.98;;;;;;;14.76;88.52;95095.94;5056798;28;20044;-78
2021/07/24 04:36:40;;;;;;;27.90;15.00;;;;;;;14.67;88.72;95094.00;5035974;28;20041;-80
2021/07/24 04:39:06;;;;;;;29.77;15.07;;;;;;;14.72;88.86;95096.53;5041978;28;20049;-80
2021/07/24 04:41:32;;;;;;;25.98;15.05;;;;;;;14.72;89.22;95096.53;5043568;28;20434;-79
2021/07/24 04:43:57;;;;;;;25.73;14.73;;;;;;;14.75;89.36;95089.06;5044189;28;20046;-79
2021/07/24 04:46:23;;;;;;;25.40;15.23;;;;;;;14.95;88.98;95088.50;5043501;28;20095;-79
2021/07/24 04:48:48;;;;;;;27.65;15.15;;;;;;;15.01;88.05;95095.25;5041623;28;20163;-80
2021/07/24 04:51:15;;;;;;;27.77;14.98;;;;;;;14.91;89.05;95092.84;5048408;28;20124;-80
2021/07/24 04:53:43;;;;;;;27.20;14.40;;;;;;;14.95;89.16;95093.78;5036678;28;20037;-79
2021/07/24 04:56:08;;;;;;;27.20;14.30;;;;;;;14.99;89.41;95084.16;5042486;28;20045;-80
2021/07/24 04:58:35;;;;;;;25.52;15.00;;;;;;;15.06;89.37;95079.19;5040404;28;20045;-80
2021/07/24 05:01:01;;;;;;;28.45;16.10;;;;;;;15.04;89.14;95076.06;5037169;28;20483;-80
2021/07/24 05:03:27;;;;;;;32.05;15.45;;;;;;;15.03;89.70;95066.56;5041652;28;20045;-80
2021/07/24 05:05:53;;;;;;;27.17;15.10;;;;;;;15.15;89.79;95067.84;5047205;28;20417;-78
2021/07/24 05:08:21;;;;;;;25.98;15.13;;;;;;;15.18;89.30;95069.84;5044662;28;20037;-80
2021/07/24 05:10:47;;;;;;;30.20;14.75;;;;;;;15.23;89.56;95072.38;5033848;28;20041;-84
2021/07/24 05:13:12;;;;;;;26.05;15.55;;;;;;;15.29;89.41;95076.44;5043928;28;20041;-83
2021/07/24 05:15:38;;;;;;;24.88;15.02;;;;;;;15.37;89.21;95080.97;5047658;28;20041;-81
2021/07/24 05:18:05;;;;;;;28.92;15.75;;;;;;;15.41;89.31;95079.25;5043670;28;20129;-83
2021/07/24 05:20:30;;;;;;;28.20;15.52;;;;;;;15.50;89.74;95084.56;5032346;28;20041;-80
2021/07/24 05:22:57;;;;;;;28.88;15.82;;;;;;;15.75;88.91;95087.53;5036638;28;20099;-82
2021/07/24 05:25:23;;;;;;;28.27;16.25;;;;;;;15.84;87.85;95095.53;5041439;28;20499;-81
2021/07/24 05:27:48;;;;;;;31.75;16.08;;;;;;;15.81;88.56;95085.53;5036282;28;20067;-79
2021/07/24 05:30:14;;;;;;;29.13;15.80;;;;;;;16.11;86.65;95095.19;5038456;28;20093;-79
2021/07/24 05:32:41;;;;;;;29.52;16.45;;;;;;;16.42;85.40;95088.88;5039748;28;20123;-79
2021/07/24 05:35:07;;;;;;;26.73;16.42;;;;;;;16.31;85.73;95077.03;5045916;28;20112;-79
2021/07/24 05:37:33;;;;;;;30.15;16.02;;;;;;;16.26;86.49;95074.53;5036183;28;20045;-80
2021/07/24 05:39:59;;;;;;;26.17;15.85;;;;;;;16.40;86.10;95069.81;5039675;28;20041;-78
2021/07/24 05:42:24;;;;;;;28.88;15.13;;;;;;;16.40;87.42;95069.81;5042040;28;20045;-78
2021/07/24 05:44:49;;;;;;;26.83;15.73;;;;;;;16.42;86.46;95062.34;5043489;28;20061;-79
2021/07/24 05:47:15;;;;;;;25.60;15.48;;;;;;;16.55;85.10;95051.81;5040015;28;20449;-78
2021/07/24 05:49:41;;;;;;;29.60;16.60;;;;;;;16.70;85.00;95045.97;5037949;28;20464;-79
2021/07/24 05:52:11;;;;;;;34.08;17.88;;;;;;;16.92;83.91;95046.84;5037514;28;20049;-79
2021/07/24 05:54:38;;;;;;;29.65;15.93;;;;;;;16.82;84.58;95039.97;5031572;28;20042;-79
2021/07/24 05:57:07;;;;;;;29.02;17.08;;;;;;;16.85;85.63;95033.25;5041266;28;20045;-78
2021/07/24 05:59:35;;;;;;;28.83;17.20;;;;;;;16.96;85.47;95037.13;5041521;28;20566;-79
2021/07/24 06:02:04;;;;;;;30.08;15.60;;;;;;;17.13;84.95;95038.91;5045244;28;20041;-82
2021/07/24 06:04:29;;;;;;;29.30;16.55;;;;;;;17.52;81.71;95036.16;5042539;28;20124;-81
2021/07/24 06:06:55;;;;;;;27.50;15.85;;;;;;;17.53;82.63;95033.16;5040302;28;20478;-80
2021/07/24 06:09:20;;;;;;;25.98;15.13;;;;;;;17.63;81.67;95037.31;5035102;28;20425;-80
2021/07/24 06:11:46;;;;;;;25.98;15.30;;;;;;;17.80;80.65;95042.47;5050450;28;20045;-79
2021/07/24 06:14:11;;;;;;;27.15;16.10;;;;;;;17.83;81.43;95044.47;5049692;28;20045;-78
2021/07/24 06:16:38;;;;;;;26.58;15.27;;;;;;;18.01;80.69;95055.00;5040109;28;20069;-77
2021/07/24 06:19:03;;;;;;;29.40;15.60;;;;;;;18.37;78.64;95058.88;5037123;28;20502;-79
2021/07/24 06:21:29;;;;;;;25.80;15.82;;;;;;;18.40;78.40;95057.44;5048573;28;20038;-79
2021/07/24 06:23:54;;;;;;;25.45;14.80;;;;;;;18.29;78.90;95062.41;5037958;28;20060;-80
2021/07/24 06:26:20;;;;;;;27.55;15.82;;;;;;;18.35;78.71;95058.44;5044793;28;20036;-79
2021/07/24 06:28:46;;;;;;;26.90;15.10;;;;;;;18.33;79.34;95064.09;5039138;28;20048;-79
2021/07/24 06:31:11;;;;;;;24.10;15.00;;;;;;;18.68;77.14;95073.59;5042484;28;20045;-80
2021/07/24 06:33:37;;;;;;;24.08;14.23;;;;;;;18.78;77.13;95073.16;5042925;28;20468;-80
2021/07/24 06:36:03;;;;;;;26.77;15.13;;;;;;;19.00;75.33;95068.50;5025116;28;20057;-79
2021/07/24 06:38:29;;;;;;;23.58;14.32;;;;;;;18.82;76.82;95068.72;5046009;28;20128;-80
2021/07/24 06:40:56;;;;;;;30.10;14.73;;;;;;;18.74;76.96;95061.59;5046209;28;20473;-80
2021/07/24 06:43:21;;;;;;;22.08;13.85;;;;;;;18.86;78.26;95050.97;5039953;28;20066;-81
2021/07/24 06:45:49;;;;;;;27.85;14.63;;;;;;;19.13;75.09;95062.03;5043265;28;20040;-79
2021/07/24 06:48:14;;;;;;;23.98;13.82;;;;;;;19.18;75.89;95069.06;5048042;28;20502;-79
2021/07/24 06:50:40;;;;;;;26.02;14.32;;;;;;;19.41;75.00;95074.69;5048237;28;20041;-78
2021/07/24 06:53:06;;;;;;;22.98;13.95;;;;;;;19.51;73.05;95076.91;5050930;28;20043;-79
2021/07/24 06:55:32;;;;;;;24.50;14.18;;;;;;;19.65;72.70;95102.44;5049048;28;20112;-80
2021/07/24 06:58:03;;;;;;;28.60;14.30;;;;;;;19.90;72.11;95113.88;5061764;28;20037;-79
2021/07/24 07:00:30;;;;;;;26.85;14.68;;;;;;;20.09;71.87;95099.88;5033245;28;20044;-80
2021/07/24 07:03:00;;;;;;;25.10;14.43;;;;;;;20.40;71.28;95093.06;5032634;28;20043;-83
2021/07/24 07:05:26;;;;;;;23.42;14.23;;;;;;;20.55;70.09;95100.31;5032263;28;20044;-80
2021/07/24 07:07:52;;;;;;;23.25;13.63;;;;;;;20.68;71.31;95108.31;5037271;28;20607;-79
2021/07/24 07:10:19;;;;;;;25.10;13.90;;;;;;;20.75;69.69;95111.16;5041993;28;20306;-79
2021/07/24 07:12:44;;;;;;;24.33;14.13;;;;;;;20.78;70.02;95118.50;5046408;28;20041;-79
2021/07/24 07:15:10;;;;;;;20.88;13.52;;;;;;;20.88;69.14;95117.97;5061667;28;20547;-81
2021/07/24 07:17:36;;;;;;;22.67;13.80;;;;;;;20.89;69.65;95111.50;5040240;28;20045;-79
2021/07/24 07:20:05;;;;;;;23.25;13.88;;;;;;;21.14;68.46;95113.22;5046853;28;20776;-81
2021/07/24 07:22:31;;;;;;;21.77;14.25;;;;;;;20.89;71.01;95124.13;5061063;28;20043;-77
2021/07/24 07:24:56;;;;;;;23.20;14.20;;;;;;;20.79;71.26;95114.72;5054819;28;20044;-80
2021/07/24 07:27:22;;;;;;;24.33;14.07;;;;;;;20.82;72.26;95132.72;5042836;28;20041;-80
2021/07/24 07:29:47;;;;;;;27.27;14.18;;;;;;;20.86;71.58;95144.31;5036630;28;20041;-79
2021/07/24 07:32:14;;;;;;;24.60;13.65;;;;;;;21.08;68.45;95150.16;5045001;28;20044;-79
2021/07/24 07:34:40;;;;;;;25.10;13.90;;;;;;;21.65;65.69;95152.63;5067281;28;20405;-77
2021/07/24 07:37:05;;;;;;;24.77;14.32;;;;;;;21.70;66.23;95153.13;5042932;28;20068;-78
2021/07/24 07:39:31;;;;;;;23.60;13.25;;;;;;;21.65;65.55;95163.34;5048340;28;20040;-79
2021/07/24 07:41:57;;;;;;;21.00;13.50;;;;;;;21.56;65.88;95172.31;5037130;28;20080;-80
2021/07/24 07:44:24;;;;;;;22.05;13.77;;;;;;;21.68;65.98;95178.69;5053573;28;20061;-82
2021/07/24 07:46:51;;;;;;;26.77;13.55;;;;;;;21.78;66.64;95197.69;5045487;28;20041;-84
2021/07/24 07:49:16;;;;;;;24.02;13.90;;;;;;;21.92;65.06;95212.53;5049650;28;20163;-83
2021/07/24 07:51:42;;;;;;;25.70;14.65;;;;;;;21.86;66.86;95233.44;5055728;28;20049;-83
2021/07/24 07:54:07;;;;;;;24.88;13.82;;;;;;;22.05;66.38;95245.34;5057716;28;20558;-83
2021/07/24 07:56:33;;;;;;;23.02;13.68;;;;;;;22.10;65.91;95248.53;5042640;28;20090;-83
2021/07/24 07:58:58;;;;;;;24.20;14.35;;;;;;;22.08;65.36;95252.66;5041098;28;20648;-85
2021/07/24 08:01:24;;;;;;;20.95;13.70;;;;;;;22.25;64.66;95246.91;5042550;28;20041;-85
2021/07/24 08:03:49;;;;;;;21.95;13.38;;;;;;;22.19;63.99;95234.91;5044937;28;20128;-83
2021/07/24 08:06:15;;;;;;;23.42;13.02;;;;;;;22.22;64.11;95239.56;5039323;28;20041;-85
2021/07/24 08:08:41;;;;;;;21.33;13.23;;;;;;;22.12;64.07;95234.78;5038841;28;20510;-83
2021/07/24 08:11:06;;;;;;;22.27;13.52;;;;;;;21.82;65.58;95232.59;5045012;28;20099;-85
2021/07/24 08:13:32;;;;;;;22.15;13.75;;;;;;;22.04;65.51;95239.22;5039579;28;20116;-85
2021/07/24 08:15:58;;;;;;;23.33;14.55;;;;;;;21.70;65.87;95227.34;5048309;28;20048;-83
2021/07/24 08:18:23;;;;;;;22.48;13.63;;;;;;;21.79;66.46;95217.22;5043986;28;20045;-83
2021/07/24 08:20:49;;;;;;;25.80;14.13;;;;;;;21.72;66.65;95220.53;5043040;28;20033;-84
2021/07/24 08:23:14;;;;;;;23.67;12.95;;;;;;;21.70;66.66;95204.00;5037966;28;20048;-85
2021/07/24 08:25:42;;;;;;;19.25;12.35;;;;;;;21.66;64.80;95202.38;5040695;28;20091;-83
2021/07/24 08:28:08;;;;;;;23.83;13.70;;;;;;;21.69;66.08;95204.38;5036377;28;20547;-83
2021/07/24 08:30:34;;;;;;;22.02;14.02;;;;;;;21.66;67.29;95197.03;5045166;28;20041;-84
2021/07/24 08:33:00;;;;;;;26.60;13.80;;;;;;;21.70;66.67;95187.19;5041392;28;20041;-87
2021/07/24 08:35:26;;;;;;;23.45;13.25;;;;;;;21.81;67.47;95172.13;5040451;28;20053;-83
2021/07/24 08:37:52;;;;;;;23.90;13.68;;;;;;;21.76;67.81;95185.78;5043147;28;20116;-82
2021/07/24 08:40:18;;;;;;;23.75;14.15;;;;;;;21.81;65.88;95177.47;5042706;28;20041;-83
2021/07/24 08:42:44;;;;;;;22.60;13.80;;;;;;;21.70;66.35;95176.47;5038388;28;20714;-84
2021/07/24 08:45:13;;;;;;;24.88;14.20;;;;;;;21.53;66.00;95173.03;5031271;28;20037;-83
2021/07/24 08:47:39;;;;;;;24.52;13.90;;;;;;;21.46;66.19;95165.59;5044814;28;20045;-81
2021/07/24 08:50:08;;;;;;;24.40;13.88;;;;;;;21.42;67.86;95171.97;5038485;28;20045;-82
2021/07/24 08:52:34;;;;;;;25.75;14.75;;;;;;;21.28;67.37;95165.16;5038019;28;20502;-83
2021/07/24 08:55:01;;;;;;;22.13;13.95;;;;;;;21.28;67.40;95162.50;5042691;28;20391;-82
2021/07/24 08:57:36;;;;;;;23.30;14.00;;;;;;;21.22;69.28;95158.53;5045660;28;20052;-85
2021/07/24 09:00:06;;;;;;;27.55;13.57;;;;;;;21.34;68.31;95164.91;5032370;28;20041;-83
2021/07/24 09:02:36;;;;;;;23.83;13.07;;;;;;;21.27;67.09;95149.47;5034456;28;20464;-83
2021/07/24 09:05:05;;;;;;;24.15;13.85;;;;;;;21.27;67.47;95160.94;5039452;28;20037;-84
2021/07/24 09:07:33;;;;;;;25.73;13.95;;;;;;;21.35;66.74;95169.13;5044159;28;20112;-84
2021/07/24 09:09:59;;;;;;;27.92;14.65;;;;;;;21.67;66.65;95182.53;5037898;28;20045;-84
2021/07/24 09:12:26;;;;;;;22.10;13.85;;;;;;;21.56;68.75;95193.75;5035046;28;20043;-86
2021/07/24 09:14:52;;;;;;;23.30;13.43;;;;;;;21.19;70.54;95202.03;5038796;28;20103;-81
2021/07/24 09:17:19;;;;;;;25.63;14.15;;;;;;;20.99;72.09;95197.69;5042140;28;20045;-82
2021/07/24 09:19:45;;;;;;;22.83;14.02;;;;;;;20.83;73.15;95195.00;5039082;28;20502;-80
2021/07/24 09:22:27;;;;;;;25.48;14.40;;;;;;;20.86;73.23;95184.41;5031327;28;20091;-83
2021/07/24 09:25:08;;;;;;;27.65;14.30;;;;;;;20.87;72.70;95185.94;5045874;28;20041;-81
2021/07/24 09:27:38;;;;;;;26.48;14.95;;;;;;;20.94;73.87;95180.00;5041399;28;20123;-79
2021/07/24 09:30:08;;;;;;;24.15;13.55;;;;;;;21.16;72.17;95181.34;5043801;28;20499;-83
2021/07/24 09:32:34;;;;;;;27.70;13.68;;;;;;;21.18;71.30;95189.78;5046220;28;20089;-82
2021/07/24 09:35:00;;;;;;;23.75;13.70;;;;;;;21.17;71.62;95177.50;5049791;28;20045;-82
2021/07/24 09:37:29;;;;;;;23.70;13.05;;;;;;;21.36;71.96;95173.38;5043703;28;20099;-78
2021/07/24 09:39:56;;;;;;;21.95;13.30;;;;;;;21.56;70.20;95182.28;5053321;28;20041;-80
2021/07/24 09:42:30;;;;;;;24.33;13.25;;;;;;;21.73;69.27;95181.13;5041016;28;20033;-78
2021/07/24 09:45:14;;;;;;;21.77;12.85;;;;;;;21.87;68.64;95170.72;5048527;28;20044;-83
2021/07/24 09:47:40;;;;;;;23.75;13.27;;;;;;;22.04;68.40;95163.41;5052585;28;20117;-83
2021/07/24 09:50:14;;;;;;;23.90;13.15;;;;;;;22.23;67.25;95160.72;5059278;28;20037;-80
2021/07/24 09:52:52;;;;;;;21.55;13.50;;;;;;;22.48;67.47;95155.09;5050925;28;20048;-83
2021/07/24 09:55:19;;;;;;;22.27;13.02;;;;;;;22.42;66.99;95151.16;5055239;28;20044;-80
2021/07/24 09:57:45;;;;;;;25.45;12.70;;;;;;;22.70;65.07;95155.50;5055467;28;20037;-80
2021/07/24 10:00:22;;;;;;;20.65;12.55;;;;;;;22.98;64.12;95161.34;5049335;28;20056;-80
2021/07/24 10:02:59;;;;;;;19.00;11.75;;;;;;;23.26;63.53;95171.06;5053842;28;20048;-80
2021/07/24 10:05:33;;;;;;;19.95;13.00;;;;;;;23.45;64.10;95172.09;5045247;28;20592;-82
2021/07/24 10:08:03;;;;;;;19.67;11.90;;;;;;;23.87;62.35;95168.50;5046258;28;20048;-79
2021/07/24 10:10:30;;;;;;;18.52;12.10;;;;;;;23.94;61.06;95168.59;5046159;28;20041;-84
2021/07/24 10:12:56;;;;;;;24.33;12.27;;;;;;;24.06;59.79;95167.59;5045201;28;20045;-84
2021/07/24 10:15:24;;;;;;;18.95;11.30;;;;;;;24.19;59.51;95160.06;5041599;28;20049;-84
2021/07/24 10:17:49;;;;;;;19.52;11.38;;;;;;;24.25;58.37;95157.84;5034349;28;20550;-83
2021/07/24 10:20:16;;;;;;;17.17;11.32;;;;;;;24.27;58.60;95156.34;5034778;28;20072;-82
2021/07/24 10:22:42;;;;;;;22.23;12.35;;;;;;;24.07;59.94;95153.03;5037800;28;20561;-82
2021/07/24 10:25:08;;;;;;;22.67;11.73;;;;;;;24.18;60.75;95147.78;5042502;28;20045;-83
2021/07/24 10:27:37;;;;;;;17.00;11.90;;;;;;;24.34;60.75;95153.72;5042362;28;21032;-83
2021/07/24 10:30:05;;;;;;;21.45;12.80;;;;;;;24.34;59.79;95140.28;5043791;28;20050;-83
2021/07/24 10:32:36;;;;;;;19.52;11.60;;;;;;;24.07;59.84;95136.13;5043733;28;20629;-83
2021/07/24 10:35:02;;;;;;;19.85;12.23;;;;;;;23.94;60.76;95125.59;5052121;28;20079;-83
2021/07/24 10:37:33;;;;;;;22.33;12.57;;;;;;;23.91;61.74;95118.28;5042625;28;20522;-80
2021/07/24 10:40:22;;;;;;;18.75;11.98;;;;;;;24.02;60.84;95113.81;5044309;28;20045;-82
2021/07/24 10:42:50;;;;;;;19.30;12.35;;;;;;;24.01;60.77;95117.63;5048943;28;20450;-82
2021/07/24 10:45:45;;;;;;;23.25;13.57;;;;;;;23.95;61.05;95119.09;5041926;28;20049;-82
2021/07/24 10:48:13;;;;;;;20.05;12.88;;;;;;;24.32;60.79;95126.44;5047257;28;20053;-82
2021/07/24 10:50:57;;;;;;;21.42;13.43;;;;;;;24.37;61.20;95118.03;5043212;28;20113;-79
2021/07/24 10:53:27;;;;;;;21.23;12.23;;;;;;;24.90;59.34;95127.03;5045370;28;20044;-82
2021/07/24 10:55:54;;;;;;;19.30;12.23;;;;;;;25.46;56.38;95135.16;5050043;28;20041;-77
2021/07/24 10:58:22;;;;;;;18.38;11.68;;;;;;;25.40;54.68;95132.84;5048850;28;20419;-77
2021/07/24 11:00:51;;;;;;;19.27;11.52;;;;;;;25.36;53.64;95115.88;5048499;28;20041;-78
2021/07/24 11:03:35;;;;;;;19.52;12.18;;;;;;;25.21;54.61;95111.50;5037749;28;20034;-79
2021/07/24 11:06:23;;;;;;;18.83;12.50;;;;;;;25.79;53.67;95109.19;5035810;28;20407;-80
2021/07/24 11:09:02;;;;;;;20.38;12.07;;;;;;;26.34;51.74;95105.59;5047586;28;20029;-81
2021/07/24 11:11:37;;;;;;;20.60;11.98;;;;;;;26.04;52.28;95104.69;5041778;28;20049;-79
2021/07/24 11:14:02;;;;;;;21.05;11.40;;;;;;;26.74;50.03;95091.03;5036250;28;20511;-81
2021/07/24 11:17:05;;;;;;;17.00;11.90;;;;;;;26.98;50.36;95099.53;5043944;28;20072;-79
2021/07/24 11:19:35;;;;;;;18.52;11.88;;;;;;;26.63;51.32;95095.63;5042897;28;20056;-79
2021/07/24 11:22:20;;;;;;;21.83;12.55;;;;;;;27.07;49.51;95099.16;5044819;28;20079;-78